Time;durP1;ratioP1;P1;durP2;ratioP2;P2;SDS_P1;SDS_P2;PMS_P1;PMS_P2;Temp;Humidity;BMP_temperature;BMP_pressure;BME280_temperature;BME280_humidity;BME280_pressure;Samples;Min_cycle;Max_cycle;Signal;HPM_P1;HPM_P2
2022/11/18 00:02:19;;;;;;;36.13;18.98;;;7.20;99.90;;;;;;6260733;23;20004;-84
2022/11/18 00:04:44;;;;;;;37.63;20.08;;;7.20;99.90;;;;;;6238076;23;19992;-82
2022/11/18 00:07:10;;;;;;;37.08;20.35;;;7.20;99.90;;;;;;6270076;23;20008;-82
2022/11/18 00:09:36;;;;;;;30.08;19.02;;;7.20;99.90;;;;;;6267237;22;20007;-82
2022/11/18 00:14:46;;;;;;;34.40;19.65;;;7.20;99.90;;;;;;6259277;23;20462;-83
2022/11/18 00:17:11;;;;;;;37.50;19.50;;;7.30;99.90;;;;;;6260048;23;20075;-83
2022/11/18 00:19:39;;;;;;;32.95;19.23;;;7.40;99.90;;;;;;6262574;23;20011;-83
2022/11/18 00:22:06;;;;;;;34.63;18.95;;;7.40;99.90;;;;;;6262434;23;20065;-83
2022/11/18 00:24:32;;;;;;;38.42;19.73;;;7.50;99.90;;;;;;6264213;23;20389;-83
2022/11/18 00:26:58;;;;;;;34.50;18.42;;;7.50;99.90;;;;;;6265380;23;20026;-83
2022/11/18 00:29:27;;;;;;;34.28;18.75;;;7.50;99.90;;;;;;6264319;23;20008;-83
2022/11/18 00:31:53;;;;;;;32.92;18.58;;;7.50;99.90;;;;;;6266556;22;20007;-82
2022/11/18 00:34:19;;;;;;;33.40;19.25;;;7.50;99.90;;;;;;6266509;22;20019;-82
2022/11/18 00:36:46;;;;;;;43.55;21.27;;;7.60;99.90;;;;;;6266909;22;20387;-82
2022/11/18 00:39:13;;;;;;;37.50;20.05;;;7.50;99.90;;;;;;6264138;23;20008;-83
2022/11/18 00:44:24;;;;;;;32.03;18.90;;;7.60;99.90;;;;;;6263227;23;20018;-83
2022/11/18 00:46:50;;;;;;;36.20;19.13;;;7.60;99.90;;;;;;6268439;22;20000;-83
2022/11/18 00:49:15;;;;;;;36.22;19.02;;;7.60;99.90;;;;;;6266910;23;20092;-81
2022/11/18 00:51:41;;;;;;;35.55;20.15;;;7.60;99.90;;;;;;6267025;23;20004;-82
2022/11/18 00:54:07;;;;;;;36.75;20.00;;;7.70;99.90;;;;;;6242058;23;19992;-82
2022/11/18 00:56:33;;;;;;;43.10;21.17;;;7.60;99.90;;;;;;6267228;23;20000;-83
2022/11/18 00:58:59;;;;;;;35.83;19.90;;;7.60;99.90;;;;;;6262607;23;20000;-83
2022/11/18 01:01:25;;;;;;;37.80;20.70;;;7.50;99.90;;;;;;6261961;22;20011;-84
2022/11/18 01:03:51;;;;;;;39.55;20.08;;;7.50;99.90;;;;;;6262015;22;20015;-82
2022/11/18 01:06:17;;;;;;;43.13;20.65;;;7.60;99.90;;;;;;6257944;22;20522;-83
2022/11/18 01:08:42;;;;;;;50.13;21.98;;;7.60;99.90;;;;;;6254436;23;20462;-83
2022/11/18 01:13:53;;;;;;;54.78;22.17;;;7.70;99.90;;;;;;6252658;23;20011;-83
2022/11/18 01:16:25;;;;;;;59.67;22.88;;;7.60;99.90;;;;;;6225022;23;20023;-82
2022/11/18 01:18:51;;;;;;;52.60;22.60;;;7.60;99.90;;;;;;6254196;23;20024;-83
2022/11/18 01:21:17;;;;;;;52.08;24.75;;;7.60;99.90;;;;;;6255916;23;20056;-84
2022/11/18 01:23:43;;;;;;;50.47;23.20;;;7.60;99.90;;;;;;6257175;23;20075;-82
2022/11/18 01:26:12;;;;;;;49.05;21.75;;;7.60;99.90;;;;;;6258822;22;20596;-83
2022/11/18 01:28:39;;;;;;;46.53;22.08;;;7.60;99.90;;;;;;6257437;23;20020;-83
2022/11/18 01:31:11;;;;;;;46.17;21.45;;;7.60;99.90;;;;;;6255606;23;20053;-82
2022/11/18 01:33:37;;;;;;;51.65;23.38;;;7.60;99.90;;;;;;6256100;22;20004;-85
2022/11/18 01:36:03;;;;;;;47.40;22.48;;;7.50;99.90;;;;;;6255172;22;20046;-83
2022/11/18 01:38:29;;;;;;;59.03;24.02;;;7.60;99.90;;;;;;6254117;23;20070;-84
2022/11/18 01:40:55;;;;;;;60.20;24.05;;;7.50;99.90;;;;;;6253144;23;20275;-84
2022/11/18 01:43:22;;;;;;;65.97;25.80;;;7.50;99.90;;;;;;6256524;23;20008;-83
2022/11/18 01:45:52;;;;;;;63.72;23.85;;;7.50;99.90;;;;;;6253463;23;20011;-83
2022/11/18 01:48:30;;;;;;;72.00;26.20;;;7.50;99.90;;;;;;6260665;23;20004;-83
2022/11/18 01:51:06;;;;;;;65.82;25.33;;;7.50;99.90;;;;;;6266975;22;20419;-84
2022/11/18 01:53:37;;;;;;;53.25;23.58;;;7.40;99.90;;;;;;6263253;22;20087;-83
2022/11/18 01:56:11;;;;;;;60.67;24.90;;;7.40;99.90;;;;;;6260727;22;20010;-83
2022/11/18 01:58:42;;;;;;;57.97;25.52;;;7.40;99.90;;;;;;6253824;22;20008;-83
2022/11/18 02:01:08;;;;;;;67.00;26.00;;;7.30;99.90;;;;;;6251637;23;20008;-84
2022/11/18 02:03:34;;;;;;;65.30;25.70;;;7.30;99.90;;;;;;6231108;23;20004;-83
2022/11/18 02:06:03;;;;;;;69.95;25.77;;;7.30;99.90;;;;;;6258531;22;20096;-82
2022/11/18 02:08:29;;;;;;;72.13;25.50;;;7.30;99.90;;;;;;6251866;23;20004;-84
2022/11/18 02:10:55;;;;;;;72.80;26.23;;;7.30;99.90;;;;;;6250575;23;20036;-83
2022/11/18 02:13:22;;;;;;;71.78;26.95;;;7.30;99.90;;;;;;6250861;23;20067;-85
2022/11/18 02:16:03;;;;;;;61.67;26.67;;;7.30;99.90;;;;;;6254990;22;20011;-83
2022/11/18 02:18:47;;;;;;;76.00;27.35;;;7.20;99.90;;;;;;6254279;23;20008;-83
2022/11/18 02:21:18;;;;;;;72.93;27.90;;;7.20;99.90;;;;;;6252742;23;20019;-82
2022/11/18 02:24:19;;;;;;;80.30;30.00;;;7.10;99.90;;;;;;6257879;23;20004;-82
2022/11/18 02:26:57;;;;;;;73.78;27.88;;;7.10;99.90;;;;;;6261539;23;20004;-83
2022/11/18 02:29:25;;;;;;;71.57;27.80;;;7.10;99.90;;;;;;6265518;23;20060;-82
2022/11/18 02:32:21;;;;;;;75.47;26.70;;;7.10;99.90;;;;;;6268300;22;20000;-82
2022/11/18 02:35:08;;;;;;;78.38;28.58;;;7.10;99.90;;;;;;6269920;22;20010;-82
2022/11/18 02:38:01;;;;;;;69.65;26.10;;;7.10;99.90;;;;;;6267460;22;20008;-81
2022/11/18 02:40:51;;;;;;;69.25;27.20;;;7.20;99.90;;;;;;6266150;23;20028;-81
2022/11/18 02:43:25;;;;;;;67.00;25.52;;;7.20;99.90;;;;;;6270955;22;20015;-82
2022/11/18 02:45:57;;;;;;;68.78;26.58;;;7.30;99.90;;;;;;6270447;22;20024;-81
2022/11/18 02:48:27;;;;;;;78.20;28.25;;;7.20;99.90;;;;;;6269452;22;20019;-81
2022/11/18 02:50:54;;;;;;;75.47;26.80;;;7.20;99.90;;;;;;6269132;22;20000;-81
2022/11/18 02:53:22;;;;;;;69.32;27.08;;;7.30;99.90;;;;;;6269380;22;20008;-83
2022/11/18 02:55:49;;;;;;;69.45;26.65;;;7.30;99.90;;;;;;6242099;23;20026;-81
2022/11/18 02:58:19;;;;;;;72.22;27.13;;;7.30;99.90;;;;;;6266629;23;20012;-83
2022/11/18 03:00:56;;;;;;;68.63;26.40;;;7.30;99.90;;;;;;6256053;23;20007;-82
2022/11/18 03:03:35;;;;;;;76.60;26.80;;;7.30;99.90;;;;;;6264444;22;20015;-82
2022/11/18 03:06:29;;;;;;;61.75;26.00;;;7.30;99.90;;;;;;6263446;23;20015;-82
2022/11/18 03:09:13;;;;;;;63.15;23.63;;;7.30;99.90;;;;;;6262690;23;20006;-83
2022/11/18 03:12:04;;;;;;;71.10;23.98;;;7.40;99.90;;;;;;6260186;22;20012;-83
2022/11/18 03:14:38;;;;;;;68.45;24.70;;;7.40;99.90;;;;;;6259862;22;20004;-84
2022/11/18 03:17:26;;;;;;;70.97;25.48;;;7.30;99.90;;;;;;6260349;23;20011;-83
2022/11/18 03:20:09;;;;;;;60.50;24.40;;;7.40;99.90;;;;;;6263972;23;20004;-81
2022/11/18 03:22:53;;;;;;;67.80;24.33;;;7.30;99.90;;;;;;6262712;23;20019;-82
2022/11/18 03:25:36;;;;;;;56.35;22.52;;;7.30;99.90;;;;;;6262298;23;20045;-82
2022/11/18 03:28:08;;;;;;;64.40;25.15;;;7.30;99.90;;;;;;6259790;22;20119;-83
2022/11/18 03:30:38;;;;;;;60.85;23.33;;;7.20;99.90;;;;;;6252590;23;20000;-83
2022/11/18 03:33:16;;;;;;;51.28;22.20;;;7.20;99.90;;;;;;6257544;23;20000;-83
2022/11/18 03:35:46;;;;;;;53.28;21.92;;;7.10;99.90;;;;;;6267621;22;20019;-82
2022/11/18 03:38:22;;;;;;;46.90;21.85;;;7.10;99.90;;;;;;6266289;23;20099;-81
2022/11/18 03:40:58;;;;;;;45.50;20.98;;;7.10;99.90;;;;;;6265727;23;20010;-84
2022/11/18 03:43:30;;;;;;;52.13;22.00;;;7.10;99.90;;;;;;6264883;23;20028;-82
2022/11/18 03:46:05;;;;;;;50.97;21.65;;;7.00;99.90;;;;;;6268207;23;20008;-82
2022/11/18 03:48:40;;;;;;;48.90;23.88;;;7.00;99.90;;;;;;6260233;22;20050;-81
2022/11/18 03:51:12;;;;;;;52.28;23.55;;;7.00;99.90;;;;;;6237865;23;20019;-81
2022/11/18 03:53:43;;;;;;;52.47;24.50;;;6.90;99.90;;;;;;6262934;23;20079;-82
2022/11/18 03:56:15;;;;;;;49.67;23.25;;;6.90;99.90;;;;;;6262143;23;20370;-81
2022/11/18 03:59:06;;;;;;;53.67;23.95;;;6.90;99.90;;;;;;6235220;23;20067;-82
2022/11/18 04:01:54;;;;;;;45.65;21.10;;;6.90;99.90;;;;;;6261303;23;20038;-82
2022/11/18 04:04:21;;;;;;;49.28;21.48;;;6.90;99.90;;;;;;6263136;23;20008;-80
2022/11/18 04:07:14;;;;;;;46.88;22.40;;;6.90;99.90;;;;;;6266692;23;20031;-81
2022/11/18 04:09:58;;;;;;;47.90;21.92;;;6.90;99.90;;;;;;6266791;23;20000;-81
2022/11/18 04:12:29;;;;;;;46.85;21.35;;;6.90;99.90;;;;;;6241548;23;20004;-81
2022/11/18 04:14:56;;;;;;;44.67;21.88;;;7.00;99.90;;;;;;6269086;23;20044;-80
2022/11/18 04:17:25;;;;;;;53.42;24.20;;;7.00;99.90;;;;;;6267070;23;20008;-81
2022/11/18 04:19:51;;;;;;;54.88;23.05;;;7.00;99.90;;;;;;6265623;23;20004;-82
2022/11/18 04:22:18;;;;;;;49.47;21.85;;;7.00;99.90;;;;;;6262510;23;19999;-82
2022/11/18 04:24:44;;;;;;;45.80;22.08;;;7.00;99.90;;;;;;6260444;23;20370;-82
2022/11/18 04:27:10;;;;;;;57.60;23.50;;;7.00;99.90;;;;;;6261624;23;20004;-82
2022/11/18 04:29:36;;;;;;;49.35;23.40;;;7.10;99.90;;;;;;6261397;23;20083;-81
2022/11/18 04:32:03;;;;;;;53.85;22.83;;;7.10;99.90;;;;;;6262694;23;20000;-80
2022/11/18 04:34:29;;;;;;;54.03;23.73;;;7.10;99.90;;;;;;6235038;23;20310;-81
2022/11/18 04:36:55;;;;;;;49.67;21.98;;;7.10;99.90;;;;;;6234341;23;20045;-81
2022/11/18 04:39:21;;;;;;;60.85;24.13;;;7.00;99.90;;;;;;6258046;23;20012;-79
2022/11/18 04:41:56;;;;;;;53.60;23.35;;;7.00;99.90;;;;;;6263425;23;20310;-80
2022/11/18 04:44:28;;;;;;;55.00;20.67;;;7.10;99.90;;;;;;6265161;23;20449;-81
2022/11/18 04:46:55;;;;;;;46.03;20.25;;;7.10;99.90;;;;;;6264037;23;20012;-80
2022/11/18 04:49:22;;;;;;;51.58;22.13;;;7.00;99.90;;;;;;6206320;23;20066;-81
2022/11/18 04:51:48;;;;;;;54.53;22.38;;;7.00;99.90;;;;;;6235929;23;20008;-81
2022/11/18 04:54:15;;;;;;;50.70;21.63;;;7.00;99.90;;;;;;6206278;23;20056;-83
2022/11/18 04:56:42;;;;;;;54.17;22.35;;;7.00;99.90;;;;;;6232930;23;20108;-80
2022/11/18 04:59:08;;;;;;;54.70;21.75;;;7.10;99.90;;;;;;6233635;23;20000;-80
2022/11/18 05:01:35;;;;;;;51.75;22.58;;;7.00;99.90;;;;;;6238184;23;20005;-80
2022/11/18 05:04:01;;;;;;;52.40;21.98;;;7.00;99.90;;;;;;6241841;23;20005;-79
2022/11/18 05:06:27;;;;;;;48.97;21.77;;;7.00;99.90;;;;;;6240819;23;19996;-82
2022/11/18 05:08:53;;;;;;;56.90;22.77;;;6.90;99.90;;;;;;6240286;23;19989;-80
2022/11/18 05:14:04;;;;;;;50.87;21.47;;;7.00;99.90;;;;;;6242241;23;20004;-81
2022/11/18 05:16:30;;;;;;;52.17;20.85;;;6.90;99.90;;;;;;6239892;23;20109;-81
2022/11/18 05:18:56;;;;;;;52.50;22.52;;;7.00;99.90;;;;;;6238757;23;20008;-81
2022/11/18 05:21:21;;;;;;;56.78;22.20;;;7.00;99.90;;;;;;6241943;23;20000;-81
2022/11/18 05:23:47;;;;;;;52.97;22.45;;;7.00;99.90;;;;;;6240494;23;20008;-80
2022/11/18 05:26:13;;;;;;;57.08;23.27;;;7.00;99.90;;;;;;6242025;23;20082;-81
2022/11/18 05:28:39;;;;;;;53.38;21.80;;;7.00;99.90;;;;;;6241223;23;20036;-82
2022/11/18 05:31:10;;;;;;;51.65;22.88;;;6.90;99.90;;;;;;6213609;23;20004;-82
2022/11/18 05:33:37;;;;;;;60.60;23.45;;;6.90;99.90;;;;;;6240637;23;20055;-81
2022/11/18 05:36:09;;;;;;;62.90;23.08;;;7.00;99.90;;;;;;6237751;23;19997;-82
2022/11/18 05:38:35;;;;;;;55.15;22.52;;;7.00;99.90;;;;;;6235572;23;20030;-80
2022/11/18 05:41:01;;;;;;;59.42;23.17;;;6.90;99.90;;;;;;6240843;23;20004;-81
2022/11/18 05:43:28;;;;;;;53.05;23.70;;;6.90;99.90;;;;;;6241455;23;20009;-80
2022/11/18 05:45:54;;;;;;;54.30;23.38;;;7.00;99.90;;;;;;6240174;23;20473;-80
2022/11/18 05:48:19;;;;;;;54.35;23.63;;;7.00;99.90;;;;;;6238058;23;20016;-82
2022/11/18 05:50:47;;;;;;;55.75;22.48;;;7.00;99.90;;;;;;6235226;23;20008;-82
2022/11/18 05:53:16;;;;;;;56.88;24.08;;;7.00;99.90;;;;;;6234785;23;20027;-82
2022/11/18 05:56:01;;;;;;;50.58;23.50;;;7.00;99.90;;;;;;6234148;23;20008;-81
2022/11/18 05:58:27;;;;;;;49.83;23.17;;;7.00;99.90;;;;;;6236103;23;20072;-80
2022/11/18 06:00:59;;;;;;;51.95;23.23;;;7.00;99.90;;;;;;6209109;23;20004;-81
2022/11/18 06:03:27;;;;;;;57.45;24.05;;;7.00;99.90;;;;;;6236703;23;20032;-82
2022/11/18 06:05:56;;;;;;;51.45;24.05;;;7.00;99.90;;;;;;6211028;23;20001;-81
2022/11/18 06:08:24;;;;;;;50.10;22.40;;;7.00;99.90;;;;;;6210090;23;20012;-82
2022/11/18 06:10:51;;;;;;;50.78;22.58;;;7.10;99.90;;;;;;6235229;23;19996;-83
2022/11/18 06:13:22;;;;;;;56.40;24.73;;;7.10;99.90;;;;;;6208648;23;20017;-81
2022/11/18 06:15:48;;;;;;;56.13;23.00;;;7.10;99.90;;;;;;6234432;23;20031;-82
2022/11/18 06:18:20;;;;;;;47.95;21.80;;;7.10;99.90;;;;;;6237967;23;20000;-81
2022/11/18 06:20:46;;;;;;;48.10;21.67;;;7.00;99.90;;;;;;6209626;23;20007;-83
2022/11/18 06:23:12;;;;;;;50.50;20.80;;;7.00;99.90;;;;;;6238096;23;20004;-82
2022/11/18 06:25:39;;;;;;;53.78;20.85;;;7.00;99.90;;;;;;6237765;23;20338;-82
2022/11/18 06:28:05;;;;;;;48.15;20.80;;;6.90;99.90;;;;;;6237026;23;20007;-83
2022/11/18 06:30:31;;;;;;;45.88;20.33;;;6.90;99.90;;;;;;6236005;23;20004;-82
2022/11/18 06:32:57;;;;;;;50.75;20.27;;;6.90;99.90;;;;;;6233228;23;19996;-81
2022/11/18 06:35:23;;;;;;;49.63;19.83;;;6.90;99.90;;;;;;6231858;23;20028;-84
2022/11/18 06:37:49;;;;;;;52.45;20.83;;;6.90;99.90;;;;;;6228158;23;20153;-82
2022/11/18 06:40:15;;;;;;;53.08;20.38;;;6.90;99.90;;;;;;6229518;23;20012;-81
2022/11/18 06:45:26;;;;;;;52.60;19.60;;;7.00;99.90;;;;;;6240495;23;19993;-79
2022/11/18 06:47:56;;;;;;;56.05;19.85;;;7.00;99.90;;;;;;6216589;23;20000;-82
2022/11/18 06:50:23;;;;;;;52.78;19.92;;;7.00;99.90;;;;;;6241910;23;20015;-79
2022/11/18 06:52:49;;;;;;;66.53;20.13;;;7.00;99.90;;;;;;6241718;23;20007;-80
2022/11/18 06:55:15;;;;;;;49.15;19.17;;;7.00;99.90;;;;;;6231872;23;20443;-80
2022/11/18 06:57:41;;;;;;;60.67;19.27;;;6.90;99.90;;;;;;6229237;23;19997;-78
2022/11/18 07:00:08;;;;;;;56.78;19.48;;;6.90;99.90;;;;;;6229804;23;19997;-80
2022/11/18 07:02:37;;;;;;;43.42;17.70;;;7.00;99.90;;;;;;6178157;23;20000;-80
2022/11/18 07:05:04;;;;;;;56.65;17.92;;;7.00;99.90;;;;;;6203059;23;20001;-80
2022/11/18 07:07:30;;;;;;;48.45;17.20;;;7.00;99.90;;;;;;6229822;23;20004;-79
2022/11/18 07:09:56;;;;;;;50.17;17.20;;;7.00;99.90;;;;;;6227300;23;20053;-82
2022/11/18 07:12:22;;;;;;;52.10;18.08;;;7.00;99.90;;;;;;6229826;23;20013;-80
2022/11/18 07:14:47;;;;;;;49.70;18.33;;;7.00;99.90;;;;;;6228954;23;20112;-80
2022/11/18 07:17:13;;;;;;;57.00;18.58;;;7.10;99.90;;;;;;6230125;23;20001;-80
2022/11/18 07:19:42;;;;;;;46.90;16.33;;;7.00;99.90;;;;;;6202348;23;20013;-79
2022/11/18 07:22:08;;;;;;;54.00;19.50;;;7.00;99.90;;;;;;6227252;23;20316;-79
2022/11/18 07:24:33;;;;;;;52.80;19.92;;;7.00;99.90;;;;;;6203298;23;20009;-82
2022/11/18 07:26:59;;;;;;;49.28;17.38;;;7.00;99.90;;;;;;6230477;23;20000;-81
2022/11/18 07:29:26;;;;;;;54.50;18.13;;;7.00;99.90;;;;;;6229125;23;20011;-79
2022/11/18 07:31:52;;;;;;;50.35;18.50;;;7.10;99.90;;;;;;6229776;23;20040;-81
2022/11/18 07:34:18;;;;;;;48.67;17.33;;;7.00;99.90;;;;;;6226951;23;20005;-82
2022/11/18 07:36:44;;;;;;;52.30;18.38;;;7.00;99.90;;;;;;6226931;23;20004;-79
2022/11/18 07:39:10;;;;;;;51.67;19.15;;;7.20;99.90;;;;;;6232452;23;20009;-79
2022/11/18 07:41:38;;;;;;;41.65;16.83;;;7.30;99.90;;;;;;6235751;23;20001;-79
2022/11/18 07:44:05;;;;;;;46.47;17.88;;;7.30;99.90;;;;;;6234895;23;20020;-80
2022/11/18 07:46:35;;;;;;;47.40;17.00;;;7.40;99.90;;;;;;6183844;23;20005;-80
2022/11/18 07:49:04;;;;;;;46.58;17.35;;;7.40;99.90;;;;;;6236258;23;20007;-80
2022/11/18 07:51:35;;;;;;;44.65;16.20;;;7.50;99.90;;;;;;6209418;23;19996;-79
2022/11/18 07:54:05;;;;;;;45.22;16.77;;;7.50;99.90;;;;;;6235012;23;20016;-78
2022/11/18 07:56:31;;;;;;;34.88;14.85;;;7.50;99.90;;;;;;6234582;23;20058;-80
2022/11/18 07:58:57;;;;;;;43.90;15.80;;;7.40;99.90;;;;;;6206355;23;20008;-79
2022/11/18 08:01:27;;;;;;;43.63;15.07;;;7.40;99.90;;;;;;6237386;23;20013;-79
2022/11/18 08:03:53;;;;;;;43.15;15.32;;;7.40;99.90;;;;;;6229945;23;20005;-79
2022/11/18 08:06:19;;;;;;;38.75;14.77;;;7.40;99.90;;;;;;6235601;23;20023;-79
2022/11/18 08:08:46;;;;;;;47.38;15.48;;;7.40;99.90;;;;;;6231429;23;20009;-81
2022/11/18 08:11:16;;;;;;;47.13;14.63;;;7.40;99.90;;;;;;6230883;23;20075;-78
2022/11/18 08:13:42;;;;;;;36.35;14.70;;;7.30;99.90;;;;;;6229550;23;20011;-80
2022/11/18 08:16:17;;;;;;;45.35;15.15;;;7.40;99.90;;;;;;6178598;23;20001;-79
2022/11/18 08:18:44;;;;;;;47.47;16.52;;;7.40;99.90;;;;;;6229450;23;20004;-79
2022/11/18 08:21:10;;;;;;;42.10;15.80;;;7.30;99.90;;;;;;6229995;23;20060;-80
2022/11/18 08:23:36;;;;;;;41.78;14.52;;;7.40;99.90;;;;;;6224941;23;20350;-81
2022/11/18 08:26:04;;;;;;;43.08;15.40;;;7.40;99.90;;;;;;6218839;23;20011;-81
2022/11/18 08:28:30;;;;;;;35.33;14.57;;;7.30;99.90;;;;;;6192460;23;20149;-82
2022/11/18 08:30:56;;;;;;;34.15;13.57;;;7.30;99.90;;;;;;6219857;23;19997;-79
2022/11/18 08:33:22;;;;;;;35.88;14.45;;;7.40;99.90;;;;;;6175379;23;20012;-81
2022/11/18 08:35:48;;;;;;;30.60;11.52;;;7.50;99.90;;;;;;6220882;23;20419;-78
2022/11/18 08:38:14;;;;;;;23.52;11.30;;;7.50;99.90;;;;;;6201843;23;20009;-79
2022/11/18 08:40:44;;;;;;;26.30;11.73;;;7.60;99.90;;;;;;6234840;23;20004;-79
2022/11/18 08:43:10;;;;;;;26.85;12.00;;;7.70;99.90;;;;;;6230681;23;20044;-81
2022/11/18 08:45:39;;;;;;;26.08;11.88;;;7.70;99.90;;;;;;6229966;23;20020;-79
2022/11/18 08:48:05;;;;;;;26.27;11.05;;;7.80;99.90;;;;;;6239176;23;19996;-79
2022/11/18 08:50:31;;;;;;;30.02;11.63;;;7.90;99.90;;;;;;6239181;23;20020;-80
2022/11/18 08:52:56;;;;;;;25.20;11.40;;;7.90;99.90;;;;;;6238328;23;20008;-77
2022/11/18 08:55:22;;;;;;;30.80;13.23;;;7.90;99.90;;;;;;6235041;23;20014;-79
2022/11/18 08:57:48;;;;;;;27.15;11.88;;;7.90;99.90;;;;;;6230907;23;20004;-81
2022/11/18 09:00:15;;;;;;;31.73;12.85;;;7.90;99.90;;;;;;6195409;23;20513;-78
2022/11/18 09:02:41;;;;;;;34.88;13.75;;;7.90;99.90;;;;;;6226546;23;20008;-80
2022/11/18 09:05:07;;;;;;;32.40;14.15;;;7.80;99.90;;;;;;6230299;23;20387;-79
2022/11/18 09:07:32;;;;;;;34.95;13.70;;;7.80;99.90;;;;;;6179174;23;20031;-80
2022/11/18 09:09:58;;;;;;;32.78;13.23;;;7.80;99.90;;;;;;6204178;23;20001;-80
2022/11/18 09:12:24;;;;;;;36.92;13.98;;;7.90;99.90;;;;;;6204046;23;20031;-81
2022/11/18 09:14:50;;;;;;;30.20;12.55;;;7.90;99.90;;;;;;6225721;23;20024;-81
2022/11/18 09:17:16;;;;;;;36.55;13.73;;;7.90;99.90;;;;;;6199857;23;20032;-79
2022/11/18 09:19:41;;;;;;;33.30;13.35;;;7.90;99.90;;;;;;6227522;23;20004;-79
2022/11/18 09:22:08;;;;;;;35.55;14.15;;;7.90;99.90;;;;;;6227608;23;20075;-82
2022/11/18 09:24:34;;;;;;;30.35;13.00;;;7.80;99.90;;;;;;6229421;23;20005;-79
2022/11/18 09:27:05;;;;;;;34.63;13.57;;;7.70;99.90;;;;;;6201273;23;20090;-80
2022/11/18 09:29:31;;;;;;;32.83;13.43;;;7.70;99.90;;;;;;6227177;23;20005;-79
2022/11/18 09:32:00;;;;;;;32.50;13.25;;;7.70;99.90;;;;;;6225905;23;20423;-78
2022/11/18 09:34:27;;;;;;;32.92;12.63;;;7.70;99.90;;;;;;6221895;23;20005;-81
2022/11/18 09:36:54;;;;;;;31.27;13.10;;;7.60;99.90;;;;;;6196970;23;20044;-81
2022/11/18 09:39:21;;;;;;;32.30;14.00;;;7.70;99.90;;;;;;6229572;23;20015;-79
2022/11/18 09:42:12;;;;;;;34.03;14.52;;;7.60;99.90;;;;;;6231533;23;20000;-81
2022/11/18 09:44:44;;;;;;;31.27;13.38;;;7.70;99.90;;;;;;6233206;23;20013;-78
2022/11/18 09:47:18;;;;;;;32.40;13.82;;;7.70;99.90;;;;;;6234006;23;20019;-80
2022/11/18 09:49:45;;;;;;;34.22;14.88;;;7.70;99.90;;;;;;6233743;23;20140;-79
2022/11/18 09:52:26;;;;;;;31.65;13.75;;;7.70;99.90;;;;;;6234303;23;20000;-78
2022/11/18 09:54:53;;;;;;;32.55;14.73;;;7.70;99.90;;;;;;6232613;23;20004;-79
2022/11/18 09:57:23;;;;;;;30.98;13.13;;;7.80;99.90;;;;;;6231668;23;20000;-81
2022/11/18 09:59:49;;;;;;;31.63;13.60;;;7.80;99.90;;;;;;6231099;23;20020;-80
2022/11/18 10:02:27;;;;;;;35.95;15.02;;;7.90;99.90;;;;;;6204692;23;20000;-80
2022/11/18 10:04:56;;;;;;;32.97;15.50;;;7.80;99.90;;;;;;6230533;23;20008;-79
2022/11/18 10:07:40;;;;;;;37.50;15.70;;;7.80;99.90;;;;;;6228944;23;20005;-80
2022/11/18 10:10:15;;;;;;;34.95;15.20;;;7.70;99.90;;;;;;6230758;23;20454;-81
2022/11/18 10:13:00;;;;;;;33.95;13.98;;;7.60;99.90;;;;;;6228846;23;20031;-81
2022/11/18 10:15:52;;;;;;;30.83;15.38;;;7.60;99.90;;;;;;6233819;23;20100;-80
2022/11/18 10:18:38;;;;;;;31.15;13.93;;;7.60;99.90;;;;;;6230412;23;20008;-83
2022/11/18 10:21:15;;;;;;;36.72;14.70;;;7.60;99.90;;;;;;6230440;23;20031;-81
2022/11/18 10:23:57;;;;;;;36.75;15.25;;;7.50;99.90;;;;;;6229670;23;20015;-84
2022/11/18 10:26:37;;;;;;;34.92;14.13;;;7.50;99.90;;;;;;6230534;23;20020;-82
2022/11/18 10:29:08;;;;;;;29.70;13.70;;;7.50;99.90;;;;;;6232743;23;20013;-82
2022/11/18 10:31:58;;;;;;;27.27;13.18;;;7.40;99.90;;;;;;6204600;23;20028;-81
2022/11/18 10:34:24;;;;;;;30.13;13.48;;;7.40;99.90;;;;;;6211909;23;20058;-82
2022/11/18 10:36:59;;;;;;;30.60;13.43;;;7.50;99.90;;;;;;6235986;23;20005;-83
2022/11/18 10:39:25;;;;;;;27.15;11.70;;;7.40;99.90;;;;;;6204095;23;20038;-83
2022/11/18 10:41:53;;;;;;;25.45;12.02;;;7.40;99.90;;;;;;6232009;23;20013;-80
2022/11/18 10:44:30;;;;;;;30.10;11.70;;;7.50;99.90;;;;;;6229636;23;20004;-81
2022/11/18 10:47:26;;;;;;;30.55;11.98;;;7.50;99.90;;;;;;6230479;23;20078;-79
2022/11/18 10:50:13;;;;;;;23.77;10.98;;;7.60;99.90;;;;;;6231560;23;20365;-81
2022/11/18 10:52:52;;;;;;;24.63;11.02;;;7.60;99.90;;;;;;6202134;23;20020;-81
2022/11/18 10:55:21;;;;;;;22.63;10.98;;;7.70;99.90;;;;;;6229716;23;20331;-79
2022/11/18 10:57:49;;;;;;;23.52;9.43;;;7.70;99.90;;;;;;6204070;23;20008;-83
2022/11/18 11:00:32;;;;;;;22.35;10.80;;;7.70;99.90;;;;;;6230293;23;20427;-81
2022/11/18 11:02:58;;;;;;;16.75;9.15;;;7.70;99.90;;;;;;6229983;23;20435;-80
2022/11/18 11:05:25;;;;;;;24.48;10.80;;;7.70;99.90;;;;;;6230828;23;20123;-81
2022/11/18 11:08:00;;;;;;;22.85;10.73;;;7.70;99.90;;;;;;6231942;23;20039;-79
2022/11/18 11:10:26;;;;;;;21.00;10.23;;;7.70;99.90;;;;;;6180110;23;20000;-82
2022/11/18 11:13:08;;;;;;;23.00;10.95;;;7.70;99.90;;;;;;6235908;23;20005;-81
2022/11/18 11:15:41;;;;;;;21.40;10.05;;;7.70;99.90;;;;;;6211715;23;20020;-82
2022/11/18 11:18:41;;;;;;;22.08;10.00;;;7.80;99.90;;;;;;6212755;23;20036;-81
2022/11/18 11:21:17;;;;;;;24.27;9.93;;;7.80;99.90;;;;;;6232438;23;20008;-82
2022/11/18 11:23:43;;;;;;;24.10;11.45;;;7.90;99.90;;;;;;6230798;23;20015;-82
2022/11/18 11:26:31;;;;;;;22.10;10.27;;;7.80;99.90;;;;;;6230730;23;20028;-81
2022/11/18 11:29:21;;;;;;;21.80;10.75;;;7.80;99.90;;;;;;6231257;23;20035;-84
2022/11/18 11:32:02;;;;;;;21.83;9.63;;;7.90;99.90;;;;;;6230997;23;20069;-81
2022/11/18 11:34:52;;;;;;;19.55;9.05;;;8.00;99.90;;;;;;6232588;23;20048;-82
2022/11/18 11:37:18;;;;;;;25.48;10.73;;;8.00;99.90;;;;;;6230808;23;20031;-82
2022/11/18 11:40:06;;;;;;;20.88;10.15;;;8.00;99.90;;;;;;6231093;23;20001;-82
2022/11/18 11:42:51;;;;;;;17.30;9.15;;;8.00;99.90;;;;;;6205382;23;20008;-83
2022/11/18 11:45:50;;;;;;;21.15;9.65;;;8.00;99.90;;;;;;6231733;23;20008;-82
2022/11/18 11:48:52;;;;;;;18.95;8.98;;;8.00;99.90;;;;;;6206280;23;20012;-82
2022/11/18 11:51:44;;;;;;;17.23;8.43;;;8.10;99.90;;;;;;6208027;23;20013;-82
2022/11/18 11:54:32;;;;;;;24.20;9.88;;;8.00;99.90;;;;;;6234355;23;20307;-85
2022/11/18 11:57:07;;;;;;;18.25;9.65;;;8.00;99.90;;;;;;6231896;23;20019;-82
2022/11/18 11:59:56;;;;;;;21.17;9.45;;;8.00;99.90;;;;;;6203328;23;20067;-82
2022/11/18 12:02:31;;;;;;;19.38;8.55;;;8.00;99.90;;;;;;6229380;23;20012;-80
2022/11/18 12:05:16;;;;;;;21.40;10.15;;;8.00;99.90;;;;;;6232063;23;20236;-82
2022/11/18 12:07:51;;;;;;;19.77;9.23;;;8.00;99.90;;;;;;6233771;23;20040;-80
2022/11/18 12:10:35;;;;;;;18.88;9.52;;;8.10;99.90;;;;;;6230536;23;20236;-81
2022/11/18 12:13:19;;;;;;;18.13;9.43;;;8.10;99.90;;;;;;6234398;23;20019;-81
2022/11/18 12:15:54;;;;;;;19.38;9.35;;;8.10;99.90;;;;;;6238601;23;20035;-81
2022/11/18 12:18:47;;;;;;;18.20;10.13;;;8.10;99.90;;;;;;6238237;23;20025;-82
2022/11/18 12:21:42;;;;;;;17.67;9.20;;;8.10;99.90;;;;;;6212284;23;20012;-81
2022/11/18 12:24:24;;;;;;;20.08;9.75;;;8.20;99.90;;;;;;6232629;23;20035;-83
2022/11/18 12:26:51;;;;;;;19.15;9.07;;;8.20;99.90;;;;;;6181373;23;22059;-82
2022/11/18 12:29:17;;;;;;;18.77;9.18;;;8.20;99.90;;;;;;6205015;23;20415;-85
2022/11/18 12:31:51;;;;;;;18.70;9.20;;;8.30;99.90;;;;;;6232789;23;20019;-81
2022/11/18 12:34:37;;;;;;;15.98;9.10;;;8.20;99.90;;;;;;6234506;23;20015;-82
2022/11/18 12:37:22;;;;;;;18.10;8.77;;;8.10;99.90;;;;;;6209996;23;20028;-82
2022/11/18 12:39:59;;;;;;;16.33;8.38;;;8.20;99.90;;;;;;6236273;23;20060;-81
2022/11/18 12:45:42;;;;;;;16.55;8.98;;;8.10;99.90;;;;;;6226863;23;20005;-81
2022/11/18 12:48:23;;;;;;;20.67;8.73;;;8.10;99.90;;;;;;6180850;23;20002;-82
2022/11/18 12:50:54;;;;;;;20.20;9.77;;;8.00;99.90;;;;;;6233058;23;20009;-80
2022/11/18 12:53:39;;;;;;;22.65;9.45;;;8.00;99.90;;;;;;6231290;23;20016;-80
2022/11/18 12:56:25;;;;;;;22.98;10.68;;;7.90;99.90;;;;;;6240762;22;20026;-79
2022/11/18 12:58:54;;;;;;;25.52;9.75;;;7.70;99.90;;;;;;6213208;23;20009;-79
2022/11/18 13:01:34;;;;;;;22.98;11.43;;;7.70;99.90;;;;;;6239146;23;20005;-79
2022/11/18 13:04:21;;;;;;;23.38;10.48;;;7.70;99.90;;;;;;6211024;23;19993;-79
2022/11/18 13:06:47;;;;;;;22.10;10.52;;;7.60;99.90;;;;;;6226101;23;20443;-81
2022/11/18 13:09:33;;;;;;;20.63;9.35;;;7.70;99.90;;;;;;6225225;23;20004;-81
2022/11/18 13:12:14;;;;;;;19.80;8.98;;;7.60;99.90;;;;;;6225278;23;20025;-80
2022/11/18 13:17:53;;;;;;;17.60;8.57;;;7.50;99.90;;;;;;6224752;23;20004;-81
2022/11/18 13:20:26;;;;;;;15.32;7.68;;;7.50;99.90;;;;;;6226960;23;20114;-82
2022/11/18 13:25:41;;;;;;;14.45;6.50;;;7.40;99.90;;;;;;6227944;23;20016;-79